sensor_id;sensor_type;location;lat;lon;timestamp;pressure;altitude;pressure_sealevel;temperature;humidity
38880;BME280;25887;30.194;-97.880;2024-01-10T00:00:04;98289.00;;;13.99;26.84
38880;BME280;25887;30.194;-97.880;2024-01-10T00:02:30;98283.91;;;13.94;27.47
38880;BME280;25887;30.194;-97.880;2024-01-10T00:04:56;98281.41;;;13.88;27.09
38880;BME280;25887;30.194;-97.880;2024-01-10T00:07:22;98276.34;;;13.82;27.07
38880;BME280;25887;30.194;-97.880;2024-01-10T00:09:49;98285.88;;;13.77;27.20
38880;BME280;25887;30.194;-97.880;2024-01-10T00:12:15;98290.28;;;13.70;27.39
38880;BME280;25887;30.194;-97.880;2024-01-10T00:14:41;98298.06;;;13.67;27.20
38880;BME280;25887;30.194;-97.880;2024-01-10T00:17:07;98297.28;;;13.62;27.77
38880;BME280;25887;30.194;-97.880;2024-01-10T00:19:34;98293.91;;;13.57;27.81
38880;BME280;25887;30.194;-97.880;2024-01-10T00:22:00;98289.69;;;13.50;27.62
38880;BME280;25887;30.194;-97.880;2024-01-10T00:24:26;98283.69;;;13.46;27.47
38880;BME280;25887;30.194;-97.880;2024-01-10T00:26:54;98284.69;;;13.39;27.83
38880;BME280;25887;30.194;-97.880;2024-01-10T00:29:21;98289.03;;;13.34;27.82
38880;BME280;25887;30.194;-97.880;2024-01-10T00:31:47;98296.03;;;13.26;27.72
38880;BME280;25887;30.194;-97.880;2024-01-10T00:34:13;98298.66;;;13.18;27.81
38880;BME280;25887;30.194;-97.880;2024-01-10T00:36:41;98302.16;;;13.13;28.04
38880;BME280;25887;30.194;-97.880;2024-01-10T00:39:07;98298.78;;;13.07;28.06
38880;BME280;25887;30.194;-97.880;2024-01-10T00:41:36;98301.41;;;13.03;27.82
38880;BME280;25887;30.194;-97.880;2024-01-10T00:44:02;98303.19;;;12.98;28.24
38880;BME280;25887;30.194;-97.880;2024-01-10T00:46:29;98299.81;;;12.93;28.14
38880;BME280;25887;30.194;-97.880;2024-01-10T00:48:55;98297.28;;;12.87;28.67
38880;BME280;25887;30.194;-97.880;2024-01-10T00:51:21;98288.75;;;12.81;28.72
38880;BME280;25887;30.194;-97.880;2024-01-10T00:53:47;98291.41;;;12.74;28.45
38880;BME280;25887;30.194;-97.880;2024-01-10T00:56:13;98287.16;;;12.67;28.84
38880;BME280;25887;30.194;-97.880;2024-01-10T00:58:40;98301.84;;;12.60;28.83
38880;BME280;25887;30.194;-97.880;2024-01-10T01:01:07;98315.66;;;12.51;29.02
38880;BME280;25887;30.194;-97.880;2024-01-10T01:03:33;98310.63;;;12.41;29.00
38880;BME280;25887;30.194;-97.880;2024-01-10T01:06:00;98318.41;;;12.33;29.19
38880;BME280;25887;30.194;-97.880;2024-01-10T01:08:26;98327.94;;;12.23;29.28
38880;BME280;25887;30.194;-97.880;2024-01-10T01:10:52;98322.81;;;12.17;28.88
38880;BME280;25887;30.194;-97.880;2024-01-10T01:13:18;98325.41;;;12.13;29.08
38880;BME280;25887;30.194;-97.880;2024-01-10T01:15:44;98312.59;;;12.08;29.43
38880;BME280;25887;30.194;-97.880;2024-01-10T01:18:11;98314.34;;;12.06;29.08
38880;BME280;25887;30.194;-97.880;2024-01-10T01:20:38;98304.06;;;12.00;29.11
38880;BME280;25887;30.194;-97.880;2024-01-10T01:23:04;98296.41;;;11.91;29.32
38880;BME280;25887;30.194;-97.880;2024-01-10T01:25:31;98301.63;;;11.83;29.31
38880;BME280;25887;30.194;-97.880;2024-01-10T01:27:57;98297.31;;;11.75;29.36
38880;BME280;25887;30.194;-97.880;2024-01-10T01:30:23;98306.81;;;11.68;29.75
38880;BME280;25887;30.194;-97.880;2024-01-10T01:32:50;98299.97;;;11.59;29.82
38880;BME280;25887;30.194;-97.880;2024-01-10T01:35:16;98294.91;;;11.52;29.74
38880;BME280;25887;30.194;-97.880;2024-01-10T01:37:47;98296.66;;;11.45;29.51
38880;BME280;25887;30.194;-97.880;2024-01-10T01:40:13;98297.53;;;11.36;29.88
38880;BME280;25887;30.194;-97.880;2024-01-10T01:42:39;98297.56;;;11.32;29.73
38880;BME280;25887;30.194;-97.880;2024-01-10T01:45:06;98300.13;;;11.26;29.79
38880;BME280;25887;30.194;-97.880;2024-01-10T01:47:32;98319.91;;;11.21;29.86
38880;BME280;25887;30.194;-97.880;2024-01-10T01:49:59;98318.19;;;11.15;29.81
38880;BME280;25887;30.194;-97.880;2024-01-10T01:52:27;98323.34;;;11.10;30.03
38880;BME280;25887;30.194;-97.880;2024-01-10T01:54:54;98323.34;;;11.04;30.38
38880;BME280;25887;30.194;-97.880;2024-01-10T01:57:21;98325.09;;;10.96;30.56
38880;BME280;25887;30.194;-97.880;2024-01-10T01:59:47;98319.97;;;10.90;30.26
38880;BME280;25887;30.194;-97.880;2024-01-10T02:02:14;98318.25;;;10.81;30.24
38880;BME280;25887;30.194;-97.880;2024-01-10T02:04:42;98317.41;;;10.73;30.39
38880;BME280;25887;30.194;-97.880;2024-01-10T02:07:09;98315.75;;;10.66;30.60
38880;BME280;25887;30.194;-97.880;2024-01-10T02:09:35;98308.91;;;10.59;30.61
38880;BME280;25887;30.194;-97.880;2024-01-10T02:12:02;98311.47;;;10.51;30.48
38880;BME280;25887;30.194;-97.880;2024-01-10T02:14:29;98321.75;;;10.45;30.52
38880;BME280;25887;30.194;-97.880;2024-01-10T02:16:55;98323.47;;;10.37;30.94
38880;BME280;25887;30.194;-97.880;2024-01-10T02:19:22;98336.28;;;10.32;30.84
38880;BME280;25887;30.194;-97.880;2024-01-10T02:21:49;98325.16;;;10.26;30.92
38880;BME280;25887;30.194;-97.880;2024-01-10T02:24:16;98324.28;;;10.21;30.92
38880;BME280;25887;30.194;-97.880;2024-01-10T02:26:42;98325.13;;;10.14;30.98
38880;BME280;25887;30.194;-97.880;2024-01-10T02:29:08;98317.41;;;10.11;31.26
38880;BME280;25887;30.194;-97.880;2024-01-10T02:31:34;98320.00;;;10.04;31.26
38880;BME280;25887;30.194;-97.880;2024-01-10T02:34:00;98314.84;;;9.97;31.25
38880;BME280;25887;30.194;-97.880;2024-01-10T02:36:27;98320.84;;;9.91;31.01
38880;BME280;25887;30.194;-97.880;2024-01-10T02:38:53;98322.53;;;9.86;31.24
38880;BME280;25887;30.194;-97.880;2024-01-10T02:41:19;98322.53;;;9.82;31.47
38880;BME280;25887;30.194;-97.880;2024-01-10T02:43:48;98317.38;;;9.77;31.25
38880;BME280;25887;30.194;-97.880;2024-01-10T02:46:14;98314.78;;;9.71;31.67
38880;BME280;25887;30.194;-97.880;2024-01-10T02:48:40;98314.78;;;9.71;31.36
38880;BME280;25887;30.194;-97.880;2024-01-10T02:51:07;98310.50;;;9.64;31.74
38880;BME280;25887;30.194;-97.880;2024-01-10T02:53:33;98313.91;;;9.57;31.86
38880;BME280;25887;30.194;-97.880;2024-01-10T02:55:59;98310.44;;;9.45;31.63
38880;BME280;25887;30.194;-97.880;2024-01-10T02:58:25;98318.13;;;9.41;31.88
38880;BME280;25887;30.194;-97.880;2024-01-10T03:00:52;98324.97;;;9.34;31.52
38880;BME280;25887;30.194;-97.880;2024-01-10T03:03:18;98324.06;;;9.28;32.26
38880;BME280;25887;30.194;-97.880;2024-01-10T03:05:44;98329.13;;;9.17;32.29
38880;BME280;25887;30.194;-97.880;2024-01-10T03:08:10;98329.94;;;9.10;32.40
38880;BME280;25887;30.194;-97.880;2024-01-10T03:10:37;98323.97;;;9.03;32.13
38880;BME280;25887;30.194;-97.880;2024-01-10T03:13:03;98313.63;;;8.92;32.01
38880;BME280;25887;30.194;-97.880;2024-01-10T03:15:29;98313.59;;;8.85;32.14
38880;BME280;25887;30.194;-97.880;2024-01-10T03:17:56;98313.56;;;8.79;32.24
38880;BME280;25887;30.194;-97.880;2024-01-10T03:20:23;98310.13;;;8.74;32.39
38880;BME280;25887;30.194;-97.880;2024-01-10T03:22:49;98315.22;;;8.69;31.95
38880;BME280;25887;30.194;-97.880;2024-01-10T03:25:15;98316.00;;;8.60;32.55
38880;BME280;25887;30.194;-97.880;2024-01-10T03:27:41;98313.41;;;8.56;32.60
38880;BME280;25887;30.194;-97.880;2024-01-10T03:30:08;98314.22;;;8.49;32.42
38880;BME280;25887;30.194;-97.880;2024-01-10T03:32:34;98323.56;;;8.44;32.50
38880;BME280;25887;30.194;-97.880;2024-01-10T03:35:01;98319.25;;;8.40;33.31
38880;BME280;25887;30.194;-97.880;2024-01-10T03:37:27;98329.47;;;8.36;32.92
38880;BME280;25887;30.194;-97.880;2024-01-10T03:39:53;98323.47;;;8.33;32.33
38880;BME280;25887;30.194;-97.880;2024-01-10T03:42:19;98322.56;;;8.29;33.38
38880;BME280;25887;30.194;-97.880;2024-01-10T03:44:47;98316.59;;;8.26;32.89
38880;BME280;25887;30.194;-97.880;2024-01-10T03:47:13;98327.63;;;8.23;33.38
38880;BME280;25887;30.194;-97.880;2024-01-10T03:49:40;98331.88;;;8.21;33.58
38880;BME280;25887;30.194;-97.880;2024-01-10T03:52:06;98339.56;;;8.18;33.39
38880;BME280;25887;30.194;-97.880;2024-01-10T03:54:32;98340.34;;;8.16;33.79
38880;BME280;25887;30.194;-97.880;2024-01-10T03:56:59;98341.19;;;8.13;33.40
38880;BME280;25887;30.194;-97.880;2024-01-10T03:59:26;98337.78;;;8.11;33.30
38880;BME280;25887;30.194;-97.880;2024-01-10T04:01:52;98323.22;;;8.04;33.46
38880;BME280;25887;30.194;-97.880;2024-01-10T04:04:18;98320.59;;;7.98;33.31
38880;BME280;25887;30.194;-97.880;2024-01-10T04:06:45;98322.22;;;7.90;33.85
38880;BME280;25887;30.194;-97.880;2024-01-10T04:09:12;98326.47;;;7.88;33.94
38880;BME280;25887;30.194;-97.880;2024-01-10T04:11:38;98332.41;;;7.85;33.48
38880;BME280;25887;30.194;-97.880;2024-01-10T04:14:05;98310.19;;;7.79;33.47
38880;BME280;25887;30.194;-97.880;2024-01-10T04:16:31;98314.47;;;7.79;34.32
38880;BME280;25887;30.194;-97.880;2024-01-10T04:18:57;98319.53;;;7.77;34.31
38880;BME280;25887;30.194;-97.880;2024-01-10T04:21:26;98324.63;;;7.73;33.95
38880;BME280;25887;30.194;-97.880;2024-01-10T04:23:53;98310.13;;;7.72;34.00
38880;BME280;25887;30.194;-97.880;2024-01-10T04:26:19;98310.91;;;7.65;33.58
38880;BME280;25887;30.194;-97.880;2024-01-10T04:28:45;98321.06;;;7.59;33.97
38880;BME280;25887;30.194;-97.880;2024-01-10T04:31:13;98322.69;;;7.52;33.97
38880;BME280;25887;30.194;-97.880;2024-01-10T04:33:39;98323.50;;;7.48;34.02
38880;BME280;25887;30.194;-97.880;2024-01-10T04:36:06;98329.38;;;7.42;34.52
38880;BME280;25887;30.194;-97.880;2024-01-10T04:38:32;98331.84;;;7.35;34.06
38880;BME280;25887;30.194;-97.880;2024-01-10T04:40:59;98334.34;;;7.29;34.02
38880;BME280;25887;30.194;-97.880;2024-01-10T04:43:25;98323.19;;;7.23;33.75
38880;BME280;25887;30.194;-97.880;2024-01-10T04:45:51;98329.94;;;7.17;34.63
38880;BME280;25887;30.194;-97.880;2024-01-10T04:48:17;98329.00;;;7.12;34.05
38880;BME280;25887;30.194;-97.880;2024-01-10T04:50:43;98324.75;;;7.09;34.56
38880;BME280;25887;30.194;-97.880;2024-01-10T04:53:10;98318.69;;;7.04;34.50
38880;BME280;25887;30.194;-97.880;2024-01-10T04:55:36;98301.56;;;6.95;34.44
38880;BME280;25887;30.194;-97.880;2024-01-10T04:58:02;98299.78;;;6.90;34.81
38880;BME280;25887;30.194;-97.880;2024-01-10T05:00:28;98301.44;;;6.85;34.69
38880;BME280;25887;30.194;-97.880;2024-01-10T05:02:54;98297.97;;;6.81;34.94
38880;BME280;25887;30.194;-97.880;2024-01-10T05:05:21;98292.84;;;6.81;34.77
38880;BME280;25887;30.194;-97.880;2024-01-10T05:07:50;98297.94;;;6.80;35.09
38880;BME280;25887;30.194;-97.880;2024-01-10T05:10:16;98310.66;;;6.77;34.80
38880;BME280;25887;30.194;-97.880;2024-01-10T05:12:43;98320.00;;;6.76;34.75
38880;BME280;25887;30.194;-97.880;2024-01-10T05:15:09;98334.47;;;6.76;34.79
38880;BME280;25887;30.194;-97.880;2024-01-10T05:17:36;98346.41;;;6.77;34.92
38880;BME280;25887;30.194;-97.880;2024-01-10T05:20:02;98345.53;;;6.76;35.02
38880;BME280;25887;30.194;-97.880;2024-01-10T05:22:29;98334.44;;;6.73;35.01
38880;BME280;25887;30.194;-97.880;2024-01-10T05:24:55;98339.53;;;6.71;34.97
38880;BME280;25887;30.194;-97.880;2024-01-10T05:27:21;98333.50;;;6.67;35.26
38880;BME280;25887;30.194;-97.880;2024-01-10T05:29:48;98345.41;;;6.65;35.10
38880;BME280;25887;30.194;-97.880;2024-01-10T05:32:15;98341.06;;;6.61;34.95
38880;BME280;25887;30.194;-97.880;2024-01-10T05:34:42;98330.78;;;6.55;35.18
38880;BME280;25887;30.194;-97.880;2024-01-10T05:37:08;98322.22;;;6.53;35.51
38880;BME280;25887;30.194;-97.880;2024-01-10T05:39:35;98318.78;;;6.48;35.39
38880;BME280;25887;30.194;-97.880;2024-01-10T05:42:01;98322.06;;;6.41;35.14
38880;BME280;25887;30.194;-97.880;2024-01-10T05:44:30;98316.00;;;6.34;35.60
38880;BME280;25887;30.194;-97.880;2024-01-10T05:46:57;98317.59;;;6.29;36.23
38880;BME280;25887;30.194;-97.880;2024-01-10T05:49:25;98311.59;;;6.24;35.83
38880;BME280;25887;30.194;-97.880;2024-01-10T05:51:52;98314.97;;;6.23;35.61
38880;BME280;25887;30.194;-97.880;2024-01-10T05:54:18;98303.84;;;6.18;35.66
38880;BME280;25887;30.194;-97.880;2024-01-10T05:56:44;98321.69;;;6.17;35.51
38880;BME280;25887;30.194;-97.880;2024-01-10T05:59:11;98311.41;;;6.13;35.86
38880;BME280;25887;30.194;-97.880;2024-01-10T06:01:37;98299.44;;;6.09;35.86
38880;BME280;25887;30.194;-97.880;2024-01-10T06:04:06;98295.13;;;6.05;35.82
38880;BME280;25887;30.194;-97.880;2024-01-10T06:06:32;98293.34;;;6.00;35.81
38880;BME280;25887;30.194;-97.880;2024-01-10T06:08:59;98286.50;;;5.99;35.80
38880;BME280;25887;30.194;-97.880;2024-01-10T06:11:25;98283.94;;;5.97;36.30
38880;BME280;25887;30.194;-97.880;2024-01-10T06:13:51;98291.56;;;5.96;36.23
38880;BME280;25887;30.194;-97.880;2024-01-10T06:16:18;98295.81;;;5.95;35.97
38880;BME280;25887;30.194;-97.880;2024-01-10T06:18:44;98289.84;;;5.93;36.61
38880;BME280;25887;30.194;-97.880;2024-01-10T06:21:13;98290.66;;;5.92;36.58
38880;BME280;25887;30.194;-97.880;2024-01-10T06:23:40;98290.66;;;5.92;36.51
38880;BME280;25887;30.194;-97.880;2024-01-10T06:26:06;98288.97;;;5.93;35.91
38880;BME280;25887;30.194;-97.880;2024-01-10T06:28:32;98280.50;;;5.95;36.34
38880;BME280;25887;30.194;-97.880;2024-01-10T06:30:58;98278.00;;;5.98;36.66
38880;BME280;25887;30.194;-97.880;2024-01-10T06:33:24;98272.13;;;6.02;36.31
38880;BME280;25887;30.194;-97.880;2024-01-10T06:35:51;98268.78;;;6.06;36.59
38880;BME280;25887;30.194;-97.880;2024-01-10T06:38:18;98264.66;;;6.14;36.38
38880;BME280;25887;30.194;-97.880;2024-01-10T06:40:46;98260.59;;;6.26;36.69
38880;BME280;25887;30.194;-97.880;2024-01-10T06:43:15;98261.66;;;6.38;37.10
38880;BME280;25887;30.194;-97.880;2024-01-10T06:45:41;98262.66;;;6.51;36.91
38880;BME280;25887;30.194;-97.880;2024-01-10T06:48:08;98249.25;;;6.64;37.01
38880;BME280;25887;30.194;-97.880;2024-01-10T06:50:35;98251.91;;;6.75;36.59
38880;BME280;25887;30.194;-97.880;2024-01-10T06:53:01;98250.31;;;6.83;36.66
38880;BME280;25887;30.194;-97.880;2024-01-10T06:55:27;98246.22;;;6.93;36.95
38880;BME280;25887;30.194;-97.880;2024-01-10T06:57:54;98232.66;;;7.00;37.34
38880;BME280;25887;30.194;-97.880;2024-01-10T07:00:22;98235.34;;;7.11;37.03
38880;BME280;25887;30.194;-97.880;2024-01-10T07:02:49;98220.03;;;7.15;36.87
38880;BME280;25887;30.194;-97.880;2024-01-10T07:05:17;98234.66;;;7.25;36.71
38880;BME280;25887;30.194;-97.880;2024-01-10T07:07:43;98238.94;;;7.31;36.96
38880;BME280;25887;30.194;-97.880;2024-01-10T07:10:09;98239.00;;;7.36;36.94
38880;BME280;25887;30.194;-97.880;2024-01-10T07:12:36;98248.47;;;7.43;36.85
38880;BME280;25887;30.194;-97.880;2024-01-10T07:15:03;98245.97;;;7.49;36.75
38880;BME280;25887;30.194;-97.880;2024-01-10T07:17:29;98234.91;;;7.53;36.18
38880;BME280;25887;30.194;-97.880;2024-01-10T07:19:56;98240.09;;;7.59;36.48
38880;BME280;25887;30.194;-97.880;2024-01-10T07:22:23;98241.84;;;7.63;36.38
38880;BME280;25887;30.194;-97.880;2024-01-10T07:24:49;98251.25;;;7.67;36.40
38880;BME280;25887;30.194;-97.880;2024-01-10T07:27:15;98255.53;;;7.68;36.50
38880;BME280;25887;30.194;-97.880;2024-01-10T07:29:41;98251.31;;;7.73;36.23
38880;BME280;25887;30.194;-97.880;2024-01-10T07:32:07;98249.63;;;7.77;36.39
38880;BME280;25887;30.194;-97.880;2024-01-10T07:34:40;98243.66;;;7.78;36.52
38880;BME280;25887;30.194;-97.880;2024-01-10T07:37:07;98241.16;;;7.82;36.04
38880;BME280;25887;30.194;-97.880;2024-01-10T07:39:34;98248.91;;;7.89;35.97
38880;BME280;25887;30.194;-97.880;2024-01-10T07:42:01;98247.22;;;7.92;36.17
38880;BME280;25887;30.194;-97.880;2024-01-10T07:44:30;98238.69;;;7.92;36.27
38880;BME280;25887;30.194;-97.880;2024-01-10T07:46:57;98234.44;;;7.94;35.93
38880;BME280;25887;30.194;-97.880;2024-01-10T07:49:24;98221.69;;;7.97;36.48
38880;BME280;25887;30.194;-97.880;2024-01-10T07:51:50;98220.03;;;8.02;35.72
38880;BME280;25887;30.194;-97.880;2024-01-10T07:54:16;98217.47;;;8.05;36.11
38880;BME280;25887;30.194;-97.880;2024-01-10T07:56:43;98215.75;;;8.05;36.24
38880;BME280;25887;30.194;-97.880;2024-01-10T07:59:09;98216.63;;;8.06;35.52
38880;BME280;25887;30.194;-97.880;2024-01-10T08:01:35;98224.31;;;8.07;35.87
38880;BME280;25887;30.194;-97.880;2024-01-10T08:04:02;98226.88;;;8.07;35.66
38880;BME280;25887;30.194;-97.880;2024-01-10T08:06:28;98215.75;;;8.05;35.90
38880;BME280;25887;30.194;-97.880;2024-01-10T08:08:54;98212.38;;;8.08;35.85
38880;BME280;25887;30.194;-97.880;2024-01-10T08:11:20;98201.28;;;8.06;36.09
38880;BME280;25887;30.194;-97.880;2024-01-10T08:13:47;98202.13;;;8.08;36.01
38880;BME280;25887;30.194;-97.880;2024-01-10T08:16:13;98182.50;;;8.07;36.02
38880;BME280;25887;30.194;-97.880;2024-01-10T08:18:39;98179.09;;;8.06;35.42
38880;BME280;25887;30.194;-97.880;2024-01-10T08:21:05;98169.72;;;8.07;35.48
38880;BME280;25887;30.194;-97.880;2024-01-10T08:23:32;98181.66;;;8.06;35.29
38880;BME280;25887;30.194;-97.880;2024-01-10T08:25:58;98164.59;;;8.05;35.53
38880;BME280;25887;30.194;-97.880;2024-01-10T08:28:24;98176.53;;;8.08;35.98
38880;BME280;25887;30.194;-97.880;2024-01-10T08:30:51;98173.13;;;8.09;35.95
38880;BME280;25887;30.194;-97.880;2024-01-10T08:33:18;98172.31;;;8.10;35.78
38880;BME280;25887;30.194;-97.880;2024-01-10T08:35:44;98173.16;;;8.10;35.58
38880;BME280;25887;30.194;-97.880;2024-01-10T08:38:10;98161.22;;;8.09;35.82
38880;BME280;25887;30.194;-97.880;2024-01-10T08:40:37;98174.03;;;8.09;35.53
38880;BME280;25887;30.194;-97.880;2024-01-10T08:43:03;98168.91;;;8.11;35.49
38880;BME280;25887;30.194;-97.880;2024-01-10T08:45:29;98171.47;;;8.13;35.51
38880;BME280;25887;30.194;-97.880;2024-01-10T08:47:55;98165.50;;;8.15;35.54
38880;BME280;25887;30.194;-97.880;2024-01-10T08:50:23;98158.72;;;8.17;35.56
38880;BME280;25887;30.194;-97.880;2024-01-10T08:52:49;98152.75;;;8.18;35.38
38880;BME280;25887;30.194;-97.880;2024-01-10T08:55:16;98158.72;;;8.20;35.31
38880;BME280;25887;30.194;-97.880;2024-01-10T08:57:42;98155.31;;;8.21;35.96
38880;BME280;25887;30.194;-97.880;2024-01-10T09:00:09;98145.06;;;8.20;35.53
38880;BME280;25887;30.194;-97.880;2024-01-10T09:02:38;98144.22;;;8.22;35.00
38880;BME280;25887;30.194;-97.880;2024-01-10T09:05:04;98143.38;;;8.22;35.23
38880;BME280;25887;30.194;-97.880;2024-01-10T09:07:33;98138.25;;;8.23;35.37
38880;BME280;25887;30.194;-97.880;2024-01-10T09:09:59;98138.28;;;8.26;35.46
38880;BME280;25887;30.194;-97.880;2024-01-10T09:12:26;98130.63;;;8.28;35.40
38880;BME280;25887;30.194;-97.880;2024-01-10T09:14:52;98127.22;;;8.29;35.28
38880;BME280;25887;30.194;-97.880;2024-01-10T09:17:18;98134.03;;;8.31;35.27
38880;BME280;25887;30.194;-97.880;2024-01-10T09:19:45;98128.94;;;8.33;35.41
38880;BME280;25887;30.194;-97.880;2024-01-10T09:22:11;98128.94;;;8.33;35.51
38880;BME280;25887;30.194;-97.880;2024-01-10T09:24:39;98122.97;;;8.34;35.35
38880;BME280;25887;30.194;-97.880;2024-01-10T09:27:05;98121.28;;;8.34;36.03
38880;BME280;25887;30.194;-97.880;2024-01-10T09:29:34;98123.00;;;8.37;35.42
38880;BME280;25887;30.194;-97.880;2024-01-10T09:32:01;98120.44;;;8.38;35.39
38880;BME280;25887;30.194;-97.880;2024-01-10T09:34:27;98114.47;;;8.40;35.19
38880;BME280;25887;30.194;-97.880;2024-01-10T09:36:54;98111.91;;;8.40;34.99
38880;BME280;25887;30.194;-97.880;2024-01-10T09:39:20;98112.78;;;8.40;35.09
38880;BME280;25887;30.194;-97.880;2024-01-10T09:41:48;98112.78;;;8.40;35.48
38880;BME280;25887;30.194;-97.880;2024-01-10T09:44:16;98106.84;;;8.43;35.19
38880;BME280;25887;30.194;-97.880;2024-01-10T09:46:49;98103.41;;;8.45;34.95
38880;BME280;25887;30.194;-97.880;2024-01-10T09:49:17;98102.56;;;8.45;35.49
38880;BME280;25887;30.194;-97.880;2024-01-10T09:51:45;98104.28;;;8.46;35.18
38880;BME280;25887;30.194;-97.880;2024-01-10T09:54:15;98107.69;;;8.48;35.43
38880;BME280;25887;30.194;-97.880;2024-01-10T09:56:42;98107.69;;;8.48;34.97
38880;BME280;25887;30.194;-97.880;2024-01-10T09:59:10;98100.84;;;8.47;35.02
38880;BME280;25887;30.194;-97.880;2024-01-10T10:01:37;98099.19;;;8.49;35.06
38880;BME280;25887;30.194;-97.880;2024-01-10T10:04:08;98104.31;;;8.52;35.37
38880;BME280;25887;30.194;-97.880;2024-01-10T10:06:35;98100.03;;;8.51;35.12
38880;BME280;25887;30.194;-97.880;2024-01-10T10:09:01;98094.91;;;8.52;35.24
38880;BME280;25887;30.194;-97.880;2024-01-10T10:11:28;98090.66;;;8.53;34.76
38880;BME280;25887;30.194;-97.880;2024-01-10T10:13:55;98091.53;;;8.56;35.39
38880;BME280;25887;30.194;-97.880;2024-01-10T10:16:25;98098.31;;;8.56;35.08
38880;BME280;25887;30.194;-97.880;2024-01-10T10:18:54;98110.31;;;8.60;34.79
38880;BME280;25887;30.194;-97.880;2024-01-10T10:21:25;98100.91;;;8.59;35.06
38880;BME280;25887;30.194;-97.880;2024-01-10T10:24:00;98094.94;;;8.60;34.78
38880;BME280;25887;30.194;-97.880;2024-01-10T10:26:33;98089.81;;;8.60;35.04
38880;BME280;25887;30.194;-97.880;2024-01-10T10:28:59;98082.13;;;8.60;34.93
38880;BME280;25887;30.194;-97.880;2024-01-10T10:31:26;98089.81;;;8.61;34.54
38880;BME280;25887;30.194;-97.880;2024-01-10T10:33:52;98090.66;;;8.62;34.91
38880;BME280;25887;30.194;-97.880;2024-01-10T10:36:19;98100.06;;;8.61;34.64
38880;BME280;25887;30.194;-97.880;2024-01-10T10:38:49;98095.78;;;8.62;34.58
38880;BME280;25887;30.194;-97.880;2024-01-10T10:41:15;98103.47;;;8.60;34.98
38880;BME280;25887;30.194;-97.880;2024-01-10T10:43:43;98097.50;;;8.61;35.45
38880;BME280;25887;30.194;-97.880;2024-01-10T10:46:11;98100.91;;;8.63;35.18
38880;BME280;25887;30.194;-97.880;2024-01-10T10:48:42;98097.50;;;8.63;34.62
38880;BME280;25887;30.194;-97.880;2024-01-10T10:51:27;98094.94;;;8.63;34.48
38880;BME280;25887;30.194;-97.880;2024-01-10T10:53:57;98104.34;;;8.64;34.68
38880;BME280;25887;30.194;-97.880;2024-01-10T10:56:29;98105.22;;;8.64;35.06
38880;BME280;25887;30.194;-97.880;2024-01-10T10:58:57;98099.25;;;8.64;34.63
38880;BME280;25887;30.194;-97.880;2024-01-10T11:01:25;98098.38;;;8.65;35.06
38880;BME280;25887;30.194;-97.880;2024-01-10T11:03:53;98101.78;;;8.67;35.33
38880;BME280;25887;30.194;-97.880;2024-01-10T11:06:21;98103.50;;;8.67;34.71
38880;BME280;25887;30.194;-97.880;2024-01-10T11:09:09;98092.41;;;8.71;34.51
38880;BME280;25887;30.194;-97.880;2024-01-10T11:25:20;98089.00;;;8.65;34.36
38880;BME280;25887;30.194;-97.880;2024-01-10T11:27:52;98083.88;;;8.65;34.57
38880;BME280;25887;30.194;-97.880;2024-01-10T11:30:48;98083.88;;;8.70;34.60
38880;BME280;25887;30.194;-97.880;2024-01-10T11:33:23;98076.19;;;8.67;34.85
38880;BME280;25887;30.194;-97.880;2024-01-10T11:36:18;98082.16;;;8.69;34.52
38880;BME280;25887;30.194;-97.880;2024-01-10T11:39:00;98082.16;;;8.66;35.30
38880;BME280;25887;30.194;-97.880;2024-01-10T11:41:29;98078.72;;;8.61;34.89
38880;BME280;25887;30.194;-97.880;2024-01-10T11:44:28;98091.56;;;8.65;35.00
38880;BME280;25887;30.194;-97.880;2024-01-10T11:46:56;98083.84;;;8.61;34.40
38880;BME280;25887;30.194;-97.880;2024-01-10T11:49:24;98088.13;;;8.59;34.47
38880;BME280;25887;30.194;-97.880;2024-01-10T11:51:58;98081.28;;;8.58;34.13
38880;BME280;25887;30.194;-97.880;2024-01-10T11:54:42;98085.56;;;8.59;35.08
38880;BME280;25887;30.194;-97.880;2024-01-10T11:57:22;98083.81;;;8.55;34.47
38880;BME280;25887;30.194;-97.880;2024-01-10T11:59:53;98086.38;;;8.55;34.45
38880;BME280;25887;30.194;-97.880;2024-01-10T12:02:21;98078.69;;;8.52;34.86
38880;BME280;25887;30.194;-97.880;2024-01-10T12:04:48;98094.06;;;8.53;34.82
38880;BME280;25887;30.194;-97.880;2024-01-10T12:07:16;98094.91;;;8.51;34.58
38880;BME280;25887;30.194;-97.880;2024-01-10T12:09:48;98092.34;;;8.51;34.67
38880;BME280;25887;30.194;-97.880;2024-01-10T12:12:16;98094.91;;;8.51;34.88
38880;BME280;25887;30.194;-97.880;2024-01-10T12:14:42;98092.34;;;8.49;35.14
38880;BME280;25887;30.194;-97.880;2024-01-10T12:17:15;98104.31;;;8.50;34.73
38880;BME280;25887;30.194;-97.880;2024-01-10T12:19:41;98104.31;;;8.52;35.19
38880;BME280;25887;30.194;-97.880;2024-01-10T12:22:10;98097.47;;;8.51;35.19
38880;BME280;25887;30.194;-97.880;2024-01-10T12:24:47;98095.75;;;8.53;35.35
38880;BME280;25887;30.194;-97.880;2024-01-10T12:27:16;98099.19;;;8.50;34.16
38880;BME280;25887;30.194;-97.880;2024-01-10T12:29:50;98100.88;;;8.50;35.17
38880;BME280;25887;30.194;-97.880;2024-01-10T12:32:18;98099.19;;;8.52;34.51
38880;BME280;25887;30.194;-97.880;2024-01-10T12:34:54;98101.78;;;8.58;34.14
38880;BME280;25887;30.194;-97.880;2024-01-10T12:37:21;98094.91;;;8.52;34.90
38880;BME280;25887;30.194;-97.880;2024-01-10T12:39:47;98107.72;;;8.54;34.51
38880;BME280;25887;30.194;-97.880;2024-01-10T12:42:16;98107.72;;;8.54;35.06
38880;BME280;25887;30.194;-97.880;2024-01-10T12:44:44;98095.78;;;8.51;35.02
38880;BME280;25887;30.194;-97.880;2024-01-10T12:47:21;98104.34;;;8.56;35.04
38880;BME280;25887;30.194;-97.880;2024-01-10T12:49:51;98109.41;;;8.55;35.05
38880;BME280;25887;30.194;-97.880;2024-01-10T12:52:17;98113.69;;;8.54;35.23
38880;BME280;25887;30.194;-97.880;2024-01-10T12:54:47;98128.22;;;8.57;35.02
38880;BME280;25887;30.194;-97.880;2024-01-10T12:57:13;98132.50;;;8.56;35.21
38880;BME280;25887;30.194;-97.880;2024-01-10T12:59:39;98137.63;;;8.56;35.14
38880;BME280;25887;30.194;-97.880;2024-01-10T13:02:05;98148.72;;;8.57;34.69